sensor_id;sensor_type;location;lat;lon;timestamp;pressure;altitude;pressure_sealevel;temperature
50206;BMP280;36098;48.390;10.856;2023-08-24T00:00:10;96315.03;;;29.47
50206;BMP280;36098;48.390;10.856;2023-08-24T00:02:36;96322.13;;;29.52
50206;BMP280;36098;48.390;10.856;2023-08-24T00:05:02;96311.47;;;29.52
50206;BMP280;36098;48.390;10.856;2023-08-24T00:07:27;96317.41;;;29.49
50206;BMP280;36098;48.390;10.856;2023-08-24T00:09:53;96322.13;;;29.52
50206;BMP280;36098;48.390;10.856;2023-08-24T00:12:18;96319.66;;;29.64
50206;BMP280;36098;48.390;10.856;2023-08-24T00:14:43;96313.22;;;29.56
50206;BMP280;36098;48.390;10.856;2023-08-24T00:17:09;96306.63;;;29.54
50206;BMP280;36098;48.390;10.856;2023-08-24T00:19:34;96311.81;;;29.59
50206;BMP280;36098;48.390;10.856;2023-08-24T00:21:59;96307.72;;;29.53
50206;BMP280;36098;48.390;10.856;2023-08-24T00:24:24;96314.53;;;29.45
50206;BMP280;36098;48.390;10.856;2023-08-24T00:26:49;96310.84;;;29.55
50206;BMP280;36098;48.390;10.856;2023-08-24T00:29:15;96305.72;;;29.58
50206;BMP280;36098;48.390;10.856;2023-08-24T00:31:40;96307.53;;;29.49
50206;BMP280;36098;48.390;10.856;2023-08-24T00:34:06;96300.22;;;29.55
50206;BMP280;36098;48.390;10.856;2023-08-24T00:36:31;96301.44;;;29.49
50206;BMP280;36098;48.390;10.856;2023-08-24T00:38:56;96307.72;;;29.53
50206;BMP280;36098;48.390;10.856;2023-08-24T00:41:21;96302.41;;;29.53
50206;BMP280;36098;48.390;10.856;2023-08-24T00:43:47;96294.09;;;29.46
50206;BMP280;36098;48.390;10.856;2023-08-24T00:46:15;96289.94;;;29.40
50206;BMP280;36098;48.390;10.856;2023-08-24T00:48:40;96297.78;;;29.45
50206;BMP280;36098;48.390;10.856;2023-08-24T00:51:06;96289.94;;;29.40
50206;BMP280;36098;48.390;10.856;2023-08-24T00:53:31;96295.66;;;29.33
50206;BMP280;36098;48.390;10.856;2023-08-24T00:55:57;96295.31;;;29.48
50206;BMP280;36098;48.390;10.856;2023-08-24T00:58:23;96295.81;;;29.50
50206;BMP280;36098;48.390;10.856;2023-08-24T01:00:52;96300.44;;;29.45
50206;BMP280;36098;48.390;10.856;2023-08-24T01:03:18;96303.63;;;29.47
50206;BMP280;36098;48.390;10.856;2023-08-24T01:05:44;96293.75;;;29.47
50206;BMP280;36098;48.390;10.856;2023-08-24T01:08:10;96292.84;;;29.52
50206;BMP280;36098;48.390;10.856;2023-08-24T01:13:44;96294.00;;;29.59
50206;BMP280;36098;48.390;10.856;2023-08-24T01:16:25;96294.41;;;29.53
50206;BMP280;36098;48.390;10.856;2023-08-24T01:18:55;96291.97;;;29.43
50206;BMP280;36098;48.390;10.856;2023-08-24T01:21:21;96291.19;;;29.42
50206;BMP280;36098;48.390;10.856;2023-08-24T01:26:35;96289.78;;;29.45
50206;BMP280;36098;48.390;10.856;2023-08-24T01:29:01;96300.84;;;29.52
50206;BMP280;36098;48.390;10.856;2023-08-24T01:31:26;96297.56;;;29.55
50206;BMP280;36098;48.390;10.856;2023-08-24T01:33:51;96295.22;;;29.62
50206;BMP280;36098;48.390;10.856;2023-08-24T01:36:16;96287.81;;;29.50
50206;BMP280;36098;48.390;10.856;2023-08-24T01:38:42;96290.31;;;29.47
50206;BMP280;36098;48.390;10.856;2023-08-24T01:41:25;96293.75;;;29.47
50206;BMP280;36098;48.390;10.856;2023-08-24T01:43:55;96294.56;;;29.48
50206;BMP280;36098;48.390;10.856;2023-08-24T01:46:24;96290.59;;;29.45
50206;BMP280;36098;48.390;10.856;2023-08-24T01:48:49;96286.50;;;29.39
50206;BMP280;36098;48.390;10.856;2023-08-24T01:51:16;96292.19;;;29.46
50206;BMP280;36098;48.390;10.856;2023-08-24T01:53:42;96293.00;;;29.47
50206;BMP280;36098;48.390;10.856;2023-08-24T01:56:11;96287.53;;;29.52
50206;BMP280;36098;48.390;10.856;2023-08-24T01:58:37;96283.34;;;29.59
50206;BMP280;36098;48.390;10.856;2023-08-24T02:01:03;96277.38;;;29.54
50206;BMP280;36098;48.390;10.856;2023-08-24T02:03:28;96274.03;;;29.48
50206;BMP280;36098;48.390;10.856;2023-08-24T02:05:53;96271.09;;;29.50
50206;BMP280;36098;48.390;10.856;2023-08-24T02:08:19;96255.13;;;29.50
50206;BMP280;36098;48.390;10.856;2023-08-24T02:10:44;96266.06;;;29.48
50206;BMP280;36098;48.390;10.856;2023-08-24T02:13:09;96268.44;;;29.50
50206;BMP280;36098;48.390;10.856;2023-08-24T02:15:34;96255.13;;;29.50
50206;BMP280;36098;48.390;10.856;2023-08-24T02:18:00;96256.91;;;29.41
50206;BMP280;36098;48.390;10.856;2023-08-24T02:20:25;96256.91;;;29.41
50206;BMP280;36098;48.390;10.856;2023-08-24T02:22:50;96240.34;;;29.44
50206;BMP280;36098;48.390;10.856;2023-08-24T02:25:16;96240.13;;;29.54
50206;BMP280;36098;48.390;10.856;2023-08-24T02:27:41;96238.22;;;29.54
50206;BMP280;36098;48.390;10.856;2023-08-24T02:30:07;96234.00;;;29.53
50206;BMP280;36098;48.390;10.856;2023-08-24T02:32:32;96237.59;;;29.49
50206;BMP280;36098;48.390;10.856;2023-08-24T02:34:57;96241.34;;;29.48
50206;BMP280;36098;48.390;10.856;2023-08-24T02:37:22;96241.34;;;29.48
50206;BMP280;36098;48.390;10.856;2023-08-24T02:39:48;96239.88;;;29.42
50206;BMP280;36098;48.390;10.856;2023-08-24T02:42:13;96236.31;;;29.46
50206;BMP280;36098;48.390;10.856;2023-08-24T02:44:38;96239.03;;;29.55
50206;BMP280;36098;48.390;10.856;2023-08-24T02:47:04;96237.28;;;29.50
50206;BMP280;36098;48.390;10.856;2023-08-24T02:49:29;96239.88;;;29.42
50206;BMP280;36098;48.390;10.856;2023-08-24T02:51:55;96226.69;;;29.37
50206;BMP280;36098;48.390;10.856;2023-08-24T02:54:20;96222.66;;;29.39
50206;BMP280;36098;48.390;10.856;2023-08-24T02:56:45;96226.41;;;29.38
50206;BMP280;36098;48.390;10.856;2023-08-24T02:59:11;96225.28;;;29.31
50206;BMP280;36098;48.390;10.856;2023-08-24T03:01:36;96226.22;;;29.35
50206;BMP280;36098;48.390;10.856;2023-08-24T03:04:02;96224.84;;;29.37
50206;BMP280;36098;48.390;10.856;2023-08-24T03:06:29;96214.69;;;29.39
50206;BMP280;36098;48.390;10.856;2023-08-24T03:08:54;96222.66;;;29.39
50206;BMP280;36098;48.390;10.856;2023-08-24T03:11:20;96225.63;;;29.38
50206;BMP280;36098;48.390;10.856;2023-08-24T03:13:45;96221.56;;;29.40
50206;BMP280;36098;48.390;10.856;2023-08-24T03:16:10;96226.09;;;29.40
50206;BMP280;36098;48.390;10.856;2023-08-24T03:18:35;96227.97;;;29.39
50206;BMP280;36098;48.390;10.856;2023-08-24T03:21:01;96227.78;;;29.36
50206;BMP280;36098;48.390;10.856;2023-08-24T03:23:26;96224.03;;;29.37
50206;BMP280;36098;48.390;10.856;2023-08-24T03:25:52;96231.72;;;29.38
50206;BMP280;36098;48.390;10.856;2023-08-24T03:28:18;96227.19;;;29.39
50206;BMP280;36098;48.390;10.856;2023-08-24T03:30:48;96230.94;;;29.38
50206;BMP280;36098;48.390;10.856;2023-08-24T03:33:14;96228.75;;;29.40
50206;BMP280;36098;48.390;10.856;2023-08-24T03:35:40;96227.38;;;29.42
50206;BMP280;36098;48.390;10.856;2023-08-24T03:38:05;96230.94;;;29.38
50206;BMP280;36098;48.390;10.856;2023-08-24T03:40:31;96227.84;;;29.44
50206;BMP280;36098;48.390;10.856;2023-08-24T03:42:56;96227.03;;;29.44
50206;BMP280;36098;48.390;10.856;2023-08-24T03:45:22;96233.16;;;29.44
50206;BMP280;36098;48.390;10.856;2023-08-24T03:47:48;96227.66;;;29.41
50206;BMP280;36098;48.390;10.856;2023-08-24T03:50:13;96227.84;;;29.44
50206;BMP280;36098;48.390;10.856;2023-08-24T03:52:39;96224.59;;;29.47
50206;BMP280;36098;48.390;10.856;2023-08-24T03:55:05;96233.44;;;29.43
50206;BMP280;36098;48.390;10.856;2023-08-24T03:57:31;96224.84;;;29.37
50206;BMP280;36098;48.390;10.856;2023-08-24T03:59:57;96225.00;;;29.41
50206;BMP280;36098;48.390;10.856;2023-08-24T04:02:22;96230.94;;;29.38
50206;BMP280;36098;48.390;10.856;2023-08-24T04:04:48;96228.13;;;29.43
50206;BMP280;36098;48.390;10.856;2023-08-24T04:07:13;96225.00;;;29.41
50206;BMP280;36098;48.390;10.856;2023-08-24T04:09:40;96236.72;;;29.40
50206;BMP280;36098;48.390;10.856;2023-08-24T04:12:05;96232.19;;;29.40
50206;BMP280;36098;48.390;10.856;2023-08-24T04:14:31;96229.16;;;29.47
50206;BMP280;36098;48.390;10.856;2023-08-24T04:16:57;96226.56;;;29.42
50206;BMP280;36098;48.390;10.856;2023-08-24T04:19:22;96221.16;;;29.47
50206;BMP280;36098;48.390;10.856;2023-08-24T04:21:47;96224.53;;;29.39
50206;BMP280;36098;48.390;10.856;2023-08-24T04:24:12;96225.44;;;29.34
50206;BMP280;36098;48.390;10.856;2023-08-24T04:26:38;96226.03;;;29.31
50206;BMP280;36098;48.390;10.856;2023-08-24T04:29:03;96225.00;;;29.41
50206;BMP280;36098;48.390;10.856;2023-08-24T04:31:28;96221.84;;;29.39
50206;BMP280;36098;48.390;10.856;2023-08-24T04:33:54;96231.06;;;29.33
50206;BMP280;36098;48.390;10.856;2023-08-24T04:36:19;96221.66;;;29.27
50206;BMP280;36098;48.390;10.856;2023-08-24T04:38:44;96223.56;;;29.35
50206;BMP280;36098;48.390;10.856;2023-08-24T04:41:09;96217.78;;;29.33
50206;BMP280;36098;48.390;10.856;2023-08-24T04:43:36;96216.97;;;29.32
50206;BMP280;36098;48.390;10.856;2023-08-24T04:46:02;96223.84;;;29.33
50206;BMP280;36098;48.390;10.856;2023-08-24T04:48:27;96221.53;;;29.32
50206;BMP280;36098;48.390;10.856;2023-08-24T04:50:52;96221.16;;;29.25
50206;BMP280;36098;48.390;10.856;2023-08-24T04:53:19;96228.66;;;29.23
50206;BMP280;36098;48.390;10.856;2023-08-24T04:55:45;96219.81;;;29.36
50206;BMP280;36098;48.390;10.856;2023-08-24T04:58:11;96223.09;;;29.33
50206;BMP280;36098;48.390;10.856;2023-08-24T05:00:37;96219.81;;;29.36
50206;BMP280;36098;48.390;10.856;2023-08-24T05:03:04;96216.19;;;29.32
50206;BMP280;36098;48.390;10.856;2023-08-24T05:05:30;96213.06;;;29.30
50206;BMP280;36098;48.390;10.856;2023-08-24T05:07:56;96211.31;;;29.25
50206;BMP280;36098;48.390;10.856;2023-08-24T05:10:22;96204.72;;;29.23
50206;BMP280;36098;48.390;10.856;2023-08-24T05:12:47;96216.28;;;29.18
50206;BMP280;36098;48.390;10.856;2023-08-24T05:15:12;96214.75;;;29.26
50206;BMP280;36098;48.390;10.856;2023-08-24T05:17:39;96232.13;;;29.23
50206;BMP280;36098;48.390;10.856;2023-08-24T05:20:04;96244.97;;;29.30
50206;BMP280;36098;48.390;10.856;2023-08-24T05:22:30;96237.72;;;29.22
50206;BMP280;36098;48.390;10.856;2023-08-24T05:24:55;96238.03;;;29.20
50206;BMP280;36098;48.390;10.856;2023-08-24T05:27:20;96237.09;;;29.25
50206;BMP280;36098;48.390;10.856;2023-08-24T05:29:45;96233.50;;;29.21
50206;BMP280;36098;48.390;10.856;2023-08-24T05:32:11;96236.53;;;29.28
50206;BMP280;36098;48.390;10.856;2023-08-24T05:34:36;96217.59;;;29.29
50206;BMP280;36098;48.390;10.856;2023-08-24T05:37:01;96217.91;;;29.28
50206;BMP280;36098;48.390;10.856;2023-08-24T05:39:26;96222.84;;;29.21
50206;BMP280;36098;48.390;10.856;2023-08-24T05:41:52;96221.63;;;29.18
50206;BMP280;36098;48.390;10.856;2023-08-24T05:44:18;96202.69;;;29.20
50206;BMP280;36098;48.390;10.856;2023-08-24T05:46:44;96204.63;;;29.28
50206;BMP280;36098;48.390;10.856;2023-08-24T05:49:09;96202.06;;;29.23
50206;BMP280;36098;48.390;10.856;2023-08-24T05:51:34;96198.78;;;29.26
50206;BMP280;36098;48.390;10.856;2023-08-24T05:54:00;96202.06;;;29.23
50206;BMP280;36098;48.390;10.856;2023-08-24T05:56:25;96200.50;;;29.22
50206;BMP280;36098;48.390;10.856;2023-08-24T05:58:51;96201.28;;;29.22
50206;BMP280;36098;48.390;10.856;2023-08-24T06:01:16;96203.34;;;29.25
50206;BMP280;36098;48.390;10.856;2023-08-24T06:03:41;96196.41;;;29.16
50206;BMP280;36098;48.390;10.856;2023-08-24T06:06:07;96196.22;;;29.12
50206;BMP280;36098;48.390;10.856;2023-08-24T06:08:34;96198.78;;;29.17
50206;BMP280;36098;48.390;10.856;2023-08-24T06:11:00;96193.59;;;29.21
50206;BMP280;36098;48.390;10.856;2023-08-24T06:13:25;96188.63;;;29.19
50206;BMP280;36098;48.390;10.856;2023-08-24T06:15:51;96182.97;;;29.21
50206;BMP280;36098;48.390;10.856;2023-08-24T06:18:16;96180.69;;;29.28
50206;BMP280;36098;48.390;10.856;2023-08-24T06:20:42;96178.28;;;29.18
50206;BMP280;36098;48.390;10.856;2023-08-24T06:23:07;96179.06;;;29.18
50206;BMP280;36098;48.390;10.856;2023-08-24T06:25:33;96182.22;;;29.20
50206;BMP280;36098;48.390;10.856;2023-08-24T06:27:58;96177.31;;;29.14
50206;BMP280;36098;48.390;10.856;2023-08-24T06:30:24;96174.34;;;29.15
50206;BMP280;36098;48.390;10.856;2023-08-24T06:32:50;96165.94;;;29.22
50206;BMP280;36098;48.390;10.856;2023-08-24T06:35:15;96167.03;;;29.21
50206;BMP280;36098;48.390;10.856;2023-08-24T06:37:40;96166.38;;;29.15
50206;BMP280;36098;48.390;10.856;2023-08-24T06:40:06;96165.59;;;29.15
50206;BMP280;36098;48.390;10.856;2023-08-24T06:42:32;96166.06;;;29.17
50206;BMP280;36098;48.390;10.856;2023-08-24T06:44:57;96166.88;;;29.17
50206;BMP280;36098;48.390;10.856;2023-08-24T06:47:22;96172.00;;;29.14
50206;BMP280;36098;48.390;10.856;2023-08-24T06:49:47;96162.94;;;29.15
50206;BMP280;36098;48.390;10.856;2023-08-24T06:52:13;96168.44;;;29.18
50206;BMP280;36098;48.390;10.856;2023-08-24T06:54:38;96163.59;;;29.20
50206;BMP280;36098;48.390;10.856;2023-08-24T06:57:04;96157.94;;;29.22
50206;BMP280;36098;48.390;10.856;2023-08-24T06:59:29;96155.72;;;29.15
50206;BMP280;36098;48.390;10.856;2023-08-24T07:01:55;96148.72;;;29.19
50206;BMP280;36098;48.390;10.856;2023-08-24T07:04:20;96155.00;;;29.23
50206;BMP280;36098;48.390;10.856;2023-08-24T07:06:45;96154.09;;;29.28
50206;BMP280;36098;48.390;10.856;2023-08-24T07:09:11;96145.44;;;29.22
50206;BMP280;36098;48.390;10.856;2023-08-24T07:11:36;96146.38;;;29.18
50206;BMP280;36098;48.390;10.856;2023-08-24T07:14:02;96134.16;;;29.17
50206;BMP280;36098;48.390;10.856;2023-08-24T07:16:27;96141.22;;;29.21
50206;BMP280;36098;48.390;10.856;2023-08-24T07:18:52;96144.03;;;29.25
50206;BMP280;36098;48.390;10.856;2023-08-24T07:21:18;96138.38;;;29.18
50206;BMP280;36098;48.390;10.856;2023-08-24T07:23:43;96146.03;;;29.11
50206;BMP280;36098;48.390;10.856;2023-08-24T07:26:10;96148.38;;;29.12
50206;BMP280;36098;48.390;10.856;2023-08-24T07:28:35;96152.53;;;29.05
50206;BMP280;36098;48.390;10.856;2023-08-24T07:31:10;96151.63;;;29.09
50206;BMP280;36098;48.390;10.856;2023-08-24T07:33:36;96152.59;;;29.13
50206;BMP280;36098;48.390;10.856;2023-08-24T07:36:04;96150.72;;;29.14
50206;BMP280;36098;48.390;10.856;2023-08-24T07:38:29;96149.16;;;29.13
50206;BMP280;36098;48.390;10.856;2023-08-24T07:40:55;96151.22;;;29.16
50206;BMP280;36098;48.390;10.856;2023-08-24T07:43:21;96150.91;;;29.17
50206;BMP280;36098;48.390;10.856;2023-08-24T07:45:46;96153.56;;;29.17
50206;BMP280;36098;48.390;10.856;2023-08-24T07:48:11;96155.25;;;29.13
50206;BMP280;36098;48.390;10.856;2023-08-24T07:50:36;96155.25;;;29.13
50206;BMP280;36098;48.390;10.856;2023-08-24T07:53:02;96161.53;;;29.17
50206;BMP280;36098;48.390;10.856;2023-08-24T07:55:27;96158.75;;;29.22
50206;BMP280;36098;48.390;10.856;2023-08-24T07:57:52;96163.41;;;29.17
50206;BMP280;36098;48.390;10.856;2023-08-24T08:00:18;96163.84;;;29.10
50206;BMP280;36098;48.390;10.856;2023-08-24T08:02:43;96154.16;;;29.14
50206;BMP280;36098;48.390;10.856;2023-08-24T08:05:08;96165.13;;;29.13
50206;BMP280;36098;48.390;10.856;2023-08-24T08:07:35;96156.34;;;29.12
50206;BMP280;36098;48.390;10.856;2023-08-24T08:10:01;96166.69;;;29.14
50206;BMP280;36098;48.390;10.856;2023-08-24T08:12:26;96167.41;;;29.06
50206;BMP280;36098;48.390;10.856;2023-08-24T08:14:51;96164.75;;;29.06
50206;BMP280;36098;48.390;10.856;2023-08-24T08:17:17;96156.91;;;29.01
50206;BMP280;36098;48.390;10.856;2023-08-24T08:19:42;96155.72;;;29.15
50206;BMP280;36098;48.390;10.856;2023-08-24T08:22:07;96131.03;;;29.15
50206;BMP280;36098;48.390;10.856;2023-08-24T08:24:33;96114.47;;;29.18
50206;BMP280;36098;48.390;10.856;2023-08-24T08:26:58;96105.97;;;29.07
50206;BMP280;36098;48.390;10.856;2023-08-24T08:29:24;96103.81;;;29.18
50206;BMP280;36098;48.390;10.856;2023-08-24T08:31:49;96116.00;;;29.10
50206;BMP280;36098;48.390;10.856;2023-08-24T08:34:14;96119.16;;;29.21
50206;BMP280;36098;48.390;10.856;2023-08-24T08:36:40;96133.88;;;29.18
50206;BMP280;36098;48.390;10.856;2023-08-24T08:39:05;96144.19;;;29.20
50206;BMP280;36098;48.390;10.856;2023-08-24T08:41:34;96141.66;;;29.15
50206;BMP280;36098;48.390;10.856;2023-08-24T08:44:04;96142.94;;;29.17
50206;BMP280;36098;48.390;10.856;2023-08-24T08:46:32;96140.28;;;29.26
50206;BMP280;36098;48.390;10.856;2023-08-24T08:48:59;96136.81;;;29.17
50206;BMP280;36098;48.390;10.856;2023-08-24T08:51:24;96129.47;;;29.14
50206;BMP280;36098;48.390;10.856;2023-08-24T08:53:50;96136.69;;;29.22
50206;BMP280;36098;48.390;10.856;2023-08-24T08:56:15;96129.78;;;29.21
50206;BMP280;36098;48.390;10.856;2023-08-24T08:58:41;96122.56;;;29.13
50206;BMP280;36098;48.390;10.856;2023-08-24T09:01:08;96115.59;;;29.25
50206;BMP280;36098;48.390;10.856;2023-08-24T09:03:34;96111.50;;;29.19
50206;BMP280;36098;48.390;10.856;2023-08-24T09:05:59;96111.31;;;29.16
50206;BMP280;36098;48.390;10.856;2023-08-24T09:08:25;96109.00;;;29.23
50206;BMP280;36098;48.390;10.856;2023-08-24T09:10:51;96104.28;;;29.20
50206;BMP280;36098;48.390;10.856;2023-08-24T09:13:17;96103.19;;;29.21
50206;BMP280;36098;48.390;10.856;2023-08-24T09:15:42;96104.81;;;29.30
50206;BMP280;36098;48.390;10.856;2023-08-24T09:18:08;96108.09;;;29.27
50206;BMP280;36098;48.390;10.856;2023-08-24T09:20:34;96104.66;;;29.27
50206;BMP280;36098;48.390;10.856;2023-08-24T09:22:59;96105.13;;;29.29
50206;BMP280;36098;48.390;10.856;2023-08-24T09:25:24;96091.50;;;29.30
50206;BMP280;36098;48.390;10.856;2023-08-24T09:28:00;96095.25;;;29.29
50206;BMP280;36098;48.390;10.856;2023-08-24T09:30:30;96088.38;;;29.28
50206;BMP280;36098;48.390;10.856;2023-08-24T09:33:00;96080.72;;;29.27
50206;BMP280;36098;48.390;10.856;2023-08-24T09:35:26;96075.69;;;29.25
50206;BMP280;36098;48.390;10.856;2023-08-24T09:37:51;96073.81;;;29.26
50206;BMP280;36098;48.390;10.856;2023-08-24T09:40:24;96069.28;;;29.26
50206;BMP280;36098;48.390;10.856;2023-08-24T09:42:49;96065.09;;;29.34
50206;BMP280;36098;48.390;10.856;2023-08-24T09:45:15;96063.34;;;29.29
50206;BMP280;36098;48.390;10.856;2023-08-24T09:47:53;96061.59;;;29.25
50206;BMP280;36098;48.390;10.856;2023-08-24T09:50:19;96065.72;;;29.31
50206;BMP280;36098;48.390;10.856;2023-08-24T09:52:44;96059.31;;;29.32
50206;BMP280;36098;48.390;10.856;2023-08-24T09:55:11;96061.50;;;29.30
50206;BMP280;36098;48.390;10.856;2023-08-24T09:57:38;96056.47;;;29.28
50206;BMP280;36098;48.390;10.856;2023-08-24T10:00:08;96048.81;;;29.27
50206;BMP280;36098;48.390;10.856;2023-08-24T10:02:47;96043.63;;;29.30
50206;BMP280;36098;48.390;10.856;2023-08-24T10:05:14;96041.63;;;29.36
50206;BMP280;36098;48.390;10.856;2023-08-24T10:07:48;96035.06;;;29.42
50206;BMP280;36098;48.390;10.856;2023-08-24T10:10:16;96028.56;;;29.48
50206;BMP280;36098;48.390;10.856;2023-08-24T10:12:47;96030.25;;;29.52
50206;BMP280;36098;48.390;10.856;2023-08-24T10:15:14;96027.13;;;29.59
50206;BMP280;36098;48.390;10.856;2023-08-24T10:17:40;96029.16;;;29.62
50206;BMP280;36098;48.390;10.856;2023-08-24T10:20:07;96036.38;;;29.61
50206;BMP280;36098;48.390;10.856;2023-08-24T10:22:35;96025.41;;;29.63
50206;BMP280;36098;48.390;10.856;2023-08-24T10:25:02;96033.88;;;29.65
50206;BMP280;36098;48.390;10.856;2023-08-24T10:27:28;96030.44;;;29.73
50206;BMP280;36098;48.390;10.856;2023-08-24T10:29:55;96019.16;;;29.84
50206;BMP280;36098;48.390;10.856;2023-08-24T10:32:22;96015.09;;;29.70
50206;BMP280;36098;48.390;10.856;2023-08-24T10:34:48;96014.00;;;29.62
50206;BMP280;36098;48.390;10.856;2023-08-24T10:37:13;96014.47;;;29.73
50206;BMP280;36098;48.390;10.856;2023-08-24T10:39:48;96013.22;;;29.79
50206;BMP280;36098;48.390;10.856;2023-08-24T10:42:14;96004.31;;;29.92
50206;BMP280;36098;48.390;10.856;2023-08-24T10:44:44;95999.47;;;30.11
50206;BMP280;36098;48.390;10.856;2023-08-24T10:47:20;95982.84;;;29.97
50206;BMP280;36098;48.390;10.856;2023-08-24T10:52:43;95988.00;;;30.02
50206;BMP280;36098;48.390;10.856;2023-08-24T10:55:23;95979.09;;;30.06
50206;BMP280;36098;48.390;10.856;2023-08-24T10:57:56;95980.00;;;30.02
50206;BMP280;36098;48.390;10.856;2023-08-24T11:00:26;95978.78;;;29.91
50206;BMP280;36098;48.390;10.856;2023-08-24T11:02:52;95967.97;;;29.87
50206;BMP280;36098;48.390;10.856;2023-08-24T11:05:38;95968.78;;;30.05
50206;BMP280;36098;48.390;10.856;2023-08-24T11:08:04;95967.50;;;29.94
50206;BMP280;36098;48.390;10.856;2023-08-24T11:13:17;95971.75;;;29.61
50206;BMP280;36098;48.390;10.856;2023-08-24T11:15:46;95969.69;;;29.58
50206;BMP280;36098;48.390;10.856;2023-08-24T11:18:12;95967.03;;;29.49
50206;BMP280;36098;48.390;10.856;2023-08-24T11:20:37;95957.19;;;29.50
50206;BMP280;36098;48.390;10.856;2023-08-24T11:23:02;95959.38;;;29.48
50206;BMP280;36098;48.390;10.856;2023-08-24T11:25:28;95955.16;;;29.47
50206;BMP280;36098;48.390;10.856;2023-08-24T11:27:53;95946.19;;;29.43
50206;BMP280;36098;48.390;10.856;2023-08-24T11:30:19;95946.38;;;29.46
50206;BMP280;36098;48.390;10.856;2023-08-24T11:32:44;95946.09;;;29.48
50206;BMP280;36098;48.390;10.856;2023-08-24T11:35:10;95944.16;;;29.40
50206;BMP280;36098;48.390;10.856;2023-08-24T11:37:37;95935.53;;;29.34
50206;BMP280;36098;48.390;10.856;2023-08-24T11:40:02;95933.50;;;29.23
50206;BMP280;36098;48.390;10.856;2023-08-24T11:42:35;95930.72;;;29.36
50206;BMP280;36098;48.390;10.856;2023-08-24T11:45:01;95936.97;;;29.40
50206;BMP280;36098;48.390;10.856;2023-08-24T11:47:26;95933.22;;;29.41
50206;BMP280;36098;48.390;10.856;2023-08-24T11:49:51;95926.97;;;29.29
50206;BMP280;36098;48.390;10.856;2023-08-24T11:52:17;95933.38;;;29.28
50206;BMP280;36098;48.390;10.856;2023-08-24T11:54:42;95937.59;;;29.37
50206;BMP280;36098;48.390;10.856;2023-08-24T11:57:08;95930.09;;;29.22
50206;BMP280;36098;48.390;10.856;2023-08-24T11:59:36;95932.59;;;29.27
50206;BMP280;36098;48.390;10.856;2023-08-24T12:02:02;95922.88;;;29.23
50206;BMP280;36098;48.390;10.856;2023-08-24T12:04:37;95918.34;;;29.32
50206;BMP280;36098;48.390;10.856;2023-08-24T12:07:09;95920.38;;;29.18
50206;BMP280;36098;48.390;10.856;2023-08-24T12:09:34;95915.38;;;29.08
50206;BMP280;36098;48.390;10.856;2023-08-24T12:11:59;95921.78;;;29.07
50206;BMP280;36098;48.390;10.856;2023-08-24T12:14:25;95914.88;;;29.06
50206;BMP280;36098;48.390;10.856;2023-08-24T12:16:50;95913.94;;;29.02
50206;BMP280;36098;48.390;10.856;2023-08-24T12:19:21;95903.94;;;28.99
50206;BMP280;36098;48.390;10.856;2023-08-24T12:21:50;95904.56;;;29.04
50206;BMP280;36098;48.390;10.856;2023-08-24T12:24:15;95896.44;;;29.01
50206;BMP280;36098;48.390;10.856;2023-08-24T12:26:40;95902.38;;;28.98
50206;BMP280;36098;48.390;10.856;2023-08-24T12:29:08;95886.41;;;28.98
50206;BMP280;36098;48.390;10.856;2023-08-24T12:31:35;95887.97;;;28.99
50206;BMP280;36098;48.390;10.856;2023-08-24T12:34:04;95882.38;;;29.01
50206;BMP280;36098;48.390;10.856;2023-08-24T12:36:33;95887.34;;;29.02
50206;BMP280;36098;48.390;10.856;2023-08-24T12:39:01;95886.13;;;29.08
50206;BMP280;36098;48.390;10.856;2023-08-24T12:41:28;95877.81;;;29.01
50206;BMP280;36098;48.390;10.856;2023-08-24T12:43:54;95876.25;;;29.00
50206;BMP280;36098;48.390;10.856;2023-08-24T12:46:19;95867.50;;;29.00
50206;BMP280;36098;48.390;10.856;2023-08-24T12:48:45;95858.75;;;28.99
50206;BMP280;36098;48.390;10.856;2023-08-24T12:51:11;95859.22;;;29.01
50206;BMP280;36098;48.390;10.856;2023-08-24T12:53:36;95850.47;;;29.01
50206;BMP280;36098;48.390;10.856;2023-08-24T12:56:01;95861.56;;;29.02
50206;BMP280;36098;48.390;10.856;2023-08-24T12:58:27;95863.91;;;29.04
50206;BMP280;36098;48.390;10.856;2023-08-24T13:00:52;95855.47;;;29.02
50206;BMP280;36098;48.390;10.856;2023-08-24T13:03:17;95841.88;;;29.12
50206;BMP280;36098;48.390;10.856;2023-08-24T13:05:43;95836.72;;;29.07
50206;BMP280;36098;48.390;10.856;2023-08-24T13:08:08;95840.44;;;29.06
50206;BMP280;36098;48.390;10.856;2023-08-24T13:10:33;95828.25;;;29.05
50206;BMP280;36098;48.390;10.856;2023-08-24T13:12:59;95829.81;;;29.06
50206;BMP280;36098;48.390;10.856;2023-08-24T13:15:24;95822.63;;;29.06
50206;BMP280;36098;48.390;10.856;2023-08-24T13:17:49;95818.56;;;29.09
50206;BMP280;36098;48.390;10.856;2023-08-24T13:20:15;95820.44;;;29.08
50206;BMP280;36098;48.390;10.856;2023-08-24T13:22:41;95809.81;;;29.08
50206;BMP280;36098;48.390;10.856;2023-08-24T13:25:06;95806.69;;;29.15
50206;BMP280;36098;48.390;10.856;2023-08-24T13:27:32;95802.75;;;29.12
50206;BMP280;36098;48.390;10.856;2023-08-24T13:30:00;95802.00;;;29.12
50206;BMP280;36098;48.390;10.856;2023-08-24T13:32:26;95807.31;;;29.12
50206;BMP280;36098;48.390;10.856;2023-08-24T13:34:51;95808.25;;;29.16
50206;BMP280;36098;48.390;10.856;2023-08-24T13:37:17;95797.31;;;29.17
50206;BMP280;36098;48.390;10.856;2023-08-24T13:39:42;95787.78;;;29.16
50206;BMP280;36098;48.390;10.856;2023-08-24T13:42:08;95783.22;;;29.17
50206;BMP280;36098;48.390;10.856;2023-08-24T13:44:33;95781.66;;;29.16
50206;BMP280;36098;48.390;10.856;2023-08-24T13:46:58;95777.59;;;29.18
50206;BMP280;36098;48.390;10.856;2023-08-24T13:49:24;95775.72;;;29.19
50206;BMP280;36098;48.390;10.856;2023-08-24T13:51:49;95773.03;;;29.27
50206;BMP280;36098;48.390;10.856;2023-08-24T13:54:18;95776.19;;;29.21
50206;BMP280;36098;48.390;10.856;2023-08-24T13:56:46;95772.41;;;29.22
50206;BMP280;36098;48.390;10.856;2023-08-24T13:59:12;95757.09;;;29.27
50206;BMP280;36098;48.390;10.856;2023-08-24T14:01:38;95756.31;;;29.27